Time;durP1;ratioP1;P1;durP2;ratioP2;P2;SDS_P1;SDS_P2;PMS_P1;PMS_P2;Temp;Humidity;BMP_temperature;BMP_pressure;BME280_temperature;BME280_humidity;BME280_pressure;Samples;Min_cycle;Max_cycle;Signal;HPM_P1;HPM_P2
2022/06/16 00:00:32;;;;;;;;;;;;;;;;;;1922354;28;8043;-68
2022/06/16 00:01:29;;;;;;;;;;;;;;;;;;1920176;28;7045;-69
2022/06/16 00:02:27;;;;;;;;;;;;;;;;;;1919065;28;7001;-68
2022/06/16 00:03:25;;;;;;;;;;;;;;;;;;1920039;28;7375;-68
2022/06/16 00:04:23;;;;;;;;;;;;;;;;;;1919026;28;7100;-69
2022/06/16 00:05:23;;;;;;;;;;;;;;;;;;1919373;28;7021;-68
2022/06/16 00:06:21;;;;;;;;;;;;;;;;;;1918892;28;7010;-69
2022/06/16 00:07:18;;;;;;;;;;;;;;;;;;1925885;28;7251;-68
2022/06/16 00:08:18;;;;;;;;;;;;;;;;;;1927347;28;7084;-70
2022/06/16 00:09:16;;;;;;;;;;;;;;;;;;1919964;28;7093;-67
2022/06/16 00:10:13;;;;;;;;;;;;;;;;;;1923359;28;8043;-69
2022/06/16 00:11:16;;;;;;;;;;;;;;;;;;1926357;28;8031;-68
2022/06/16 00:12:14;;;;;;;;;;;;;;;;;;1922724;28;7045;-68
2022/06/16 00:13:11;;;;;;;;;;;;;;;;;;1921849;28;7005;-69
2022/06/16 00:14:10;;;;;;;;;;;;;;;;;;1925781;28;8043;-68
2022/06/16 00:15:10;;;;;;;;;;;;;;;;;;1925877;28;7092;-68
2022/06/16 00:16:07;;;;;;;;;;;;;;;;;;1918505;28;7088;-68
2022/06/16 00:17:05;;;;;;;;;;;;;;;;;;1913384;28;7042;-68
2022/06/16 00:18:03;;;;;;;;;;;;;;;;;;1916154;28;7120;-68
2022/06/16 00:19:00;;;;;;;;;;;;;;;;;;1919638;28;7088;-68
2022/06/16 00:20:00;;;;;;;;;;;;;;;;;;1920577;28;7009;-69
2022/06/16 00:20:58;;;;;;;;;;;;;;;;;;1926610;28;7034;-68
2022/06/16 00:21:55;;;;;;;;;;;;;;;;;;1924722;28;7124;-68
2022/06/16 00:22:53;;;;;;;;;;;;;;;;;;1919435;28;7054;-68
2022/06/16 00:23:51;;;;;;;;;;;;;;;;;;1922357;28;7319;-67
2022/06/16 00:24:48;;;;;;;;;;;;;;;;;;1921281;28;7009;-69
2022/06/16 00:25:45;;;;;;;;;;;;;;;;;;1911522;28;7034;-68
2022/06/16 00:26:43;;;;;;;;;;;;;;;;;;1912977;28;7502;-68
2022/06/16 00:27:41;;;;;;;;;;;;;;;;;;1924181;28;7046;-69
2022/06/16 00:28:40;;;;;;;;;;;;;;;;;;1919190;28;7029;-68
2022/06/16 00:29:38;;;;;;;;;;;;;;;;;;1925210;28;7045;-69
2022/06/16 00:30:35;;;;;;;;;;;;;;;;;;1918843;28;7110;-68
2022/06/16 00:31:34;;;;;;;;;;;;;;;;;;1914156;28;7092;-68
2022/06/16 00:32:32;;;;;;;;;;;;;;;;;;1924131;28;7152;-68
2022/06/16 00:33:30;;;;;;;;;;;;;;;;;;1926779;28;7152;-68
2022/06/16 00:34:27;;;;;;;;;;;;;;;;;;1923663;28;7352;-68
2022/06/16 00:35:25;;;;;;;;;;;;;;;;;;1924118;28;7117;-69
2022/06/16 00:36:24;;;;;;;;;;;;;;;;;;1919388;28;7009;-68
2022/06/16 00:37:21;;;;;;;;;;;;;;;;;;1918111;28;7013;-68
2022/06/16 00:38:19;;;;;;;;;;;;;;;;;;1920193;28;7009;-68
2022/06/16 00:39:16;;;;;;;;;;;;;;;;;;1923074;28;7303;-69
2022/06/16 00:40:13;;;;;;;;;;;;;;;;;;1926958;28;7109;-67
2022/06/16 00:41:12;;;;;;;;;;;;;;;;;;1922522;28;7017;-68
2022/06/16 00:42:14;;;;;;;;;;;;;;;;;;1926830;28;7045;-68
2022/06/16 00:43:11;;;;;;;;;;;;;;;;;;1925025;28;7117;-68
2022/06/16 00:44:18;;;;;;;;;;;;;;;;;;1919600;28;7092;-68
2022/06/16 00:45:38;;;;;;;;;;;;;;;;;;1913494;28;7208;-69
2022/06/16 00:46:36;;;;;;;;;;;;;;;;;;1911425;28;7034;-68
2022/06/16 00:47:33;;;;;;;;;;;;;;;;;;1925240;28;7009;-69
2022/06/16 00:48:41;;;;;;;;;;;;;;;;;;1927233;28;7157;-68
2022/06/16 00:49:44;;;;;;;;;;;;;;;;;;1926035;28;7005;-67
2022/06/16 00:50:44;;;;;;;;;;;;;;;;;;1917637;28;7005;-68
2022/06/16 00:51:55;;;;;;;;;;;;;;;;;;1919533;28;7009;-68
2022/06/16 00:52:53;;;;;;;;;;;;;;;;;;1925139;28;7013;-69
2022/06/16 00:53:53;;;;;;;;;;;;;;;;;;1926524;28;7013;-68
2022/06/16 00:54:57;;;;;;;;;;;;;;;;;;1920972;28;7128;-68
2022/06/16 00:55:56;;;;;;;;;;;;;;;;;;1926736;28;7021;-67
2022/06/16 00:56:56;;;;;;;;;;;;;;;;;;1911333;28;7009;-68
2022/06/16 00:57:54;;;;;;;;;;;;;;;;;;1910986;28;7042;-67
2022/06/16 00:59:01;;;;;;;;;;;;;;;;;;1923530;28;8095;-69
2022/06/16 01:00:00;;;;;;;;;;;;;;;;;;1919038;28;7009;-68
2022/06/16 01:01:00;;;;;;;;;;;;;;;;;;1920420;28;7010;-71
2022/06/16 01:01:58;;;;;;;;;;;;;;;;;;1925871;28;7013;-69
2022/06/16 01:02:55;;;;;;;;;;;;;;;;;;1919978;28;7096;-69
2022/06/16 01:05:10;;;;;;;;;;;;;;;;;;1922289;28;7096;-69
2022/06/16 01:06:28;;;;;;;;;;;;;;;;;;1926322;28;7013;-67
2022/06/16 01:07:25;;;;;;;;;;;;;;;;;;1927036;28;7010;-68
2022/06/16 01:08:23;;;;;;;;;;;;;;;;;;1926314;28;7005;-68
2022/06/16 01:09:22;;;;;;;;;;;;;;;;;;1922681;28;7038;-69
2022/06/16 01:10:20;;;;;;;;;;;;;;;;;;1916021;28;7148;-69
2022/06/16 01:14:15;;;;;;;;;;;;;;;;;;1923569;28;7029;-68
2022/06/16 01:15:18;;;;;;;;;;;;;;;;;;1912027;28;7002;-68
2022/06/16 01:16:35;;;;;;;;;;;;;;;;;;1911285;28;7050;-68
2022/06/16 01:17:48;;;;;;;;;;;;;;;;;;1919598;28;7113;-68
2022/06/16 01:18:49;;;;;;;;;;;;;;;;;;1919482;28;7014;-70
2022/06/16 01:19:46;;;;;;;;;;;;;;;;;;1927069;28;7928;-68
2022/06/16 01:20:48;;;;;;;;;;;;;;;;;;1926746;28;7096;-68
2022/06/16 01:21:57;;;;;;;;;;;;;;;;;;1926713;28;7020;-68
2022/06/16 01:23:13;;;;;;;;;;;;;;;;;;1922093;28;7005;-68
2022/06/16 01:24:13;;;;;;;;;;;;;;;;;;1918995;28;7316;-68
2022/06/16 01:25:10;;;;;;;;;;;;;;;;;;1923684;28;7001;-68
2022/06/16 01:26:26;;;;;;;;;;;;;;;;;;1924131;28;7001;-68
2022/06/16 01:27:23;;;;;;;;;;;;;;;;;;1924269;28;7096;-68
2022/06/16 01:28:32;;;;;;;;;;;;;;;;;;1923588;28;7092;-69
2022/06/16 01:29:40;;;;;;;;;;;;;;;;;;1912809;28;7033;-68
2022/06/16 01:30:47;;;;;;;;;;;;;;;;;;1911249;28;7340;-69
2022/06/16 01:31:50;;;;;;;;;;;;;;;;;;1920418;28;7040;-68
2022/06/16 01:32:55;;;;;;;;;;;;;;;;;;1924743;28;7124;-68
2022/06/16 01:34:00;;;;;;;;;;;;;;;;;;1922874;28;7121;-69
2022/06/16 01:35:17;;;;;;;;;;;;;;;;;;1919174;28;8035;-67
2022/06/16 01:36:25;;;;;;;;;;;;;;;;;;1909991;28;7092;-67
2022/06/16 01:37:38;;;;;;;;;;;;;;;;;;1916818;28;7012;-69
2022/06/16 01:38:52;;;;;;;;;;;;;;;;;;1921570;28;7245;-68
2022/06/16 01:40:08;;;;;;;;;;;;;;;;;;1924786;28;7038;-68
2022/06/16 01:41:12;;;;;;;;;;;;;;;;;;1927219;28;7175;-69
2022/06/16 01:42:15;;;;;;;;;;;;;;;;;;1925277;28;7005;-68
2022/06/16 01:43:13;;;;;;;;;;;;;;;;;;1920763;28;7092;-68
2022/06/16 01:44:17;;;;;;;;;;;;;;;;;;1926172;28;7006;-69
2022/06/16 01:45:23;;;;;;;;;;;;;;;;;;1925658;28;7029;-68
2022/06/16 01:46:22;;;;;;;;;;;;;;;;;;1920785;28;7009;-68
2022/06/16 01:47:21;;;;;;;;;;;;;;;;;;1921066;28;7117;-68
2022/06/16 01:48:20;;;;;;;;;;;;;;;;;;1919973;28;7111;-68
2022/06/16 01:49:40;;;;;;;;;;;;;;;;;;1920425;28;7038;-67
2022/06/16 01:50:55;;;;;;;;;;;;;;;;;;1920246;28;8027;-69
2022/06/16 01:51:55;;;;;;;;;;;;;;;;;;1919896;28;7101;-68
2022/06/16 01:53:05;;;;;;;;;;;;;;;;;;1924186;28;7390;-68
2022/06/16 01:54:17;;;;;;;;;;;;;;;;;;1928199;28;7092;-69
2022/06/16 01:55:18;;;;;;;;;;;;;;;;;;1926104;28;7046;-68
2022/06/16 01:56:20;;;;;;;;;;;;;;;;;;1928021;28;7017;-68
2022/06/16 01:57:22;;;;;;;;;;;;;;;;;;1925817;28;7009;-70
2022/06/16 01:58:24;;;;;;;;;;;;;;;;;;1921723;28;7010;-68
2022/06/16 01:59:27;;;;;;;;;;;;;;;;;;1924858;28;7113;-69
2022/06/16 02:00:26;;;;;;;;;;;;;;;;;;1927598;28;7088;-69
2022/06/16 02:01:27;;;;;;;;;;;;;;;;;;1923758;28;7034;-69
2022/06/16 02:02:28;;;;;;;;;;;;;;;;;;1920293;28;7005;-68
2022/06/16 02:03:31;;;;;;;;;;;;;;;;;;1921023;28;8223;-69
2022/06/16 02:04:36;;;;;;;;;;;;;;;;;;1919082;28;7096;-69
2022/06/16 02:05:48;;;;;;;;;;;;;;;;;;1926398;28;7005;-68
2022/06/16 02:06:50;;;;;;;;;;;;;;;;;;1919906;28;7021;-67
2022/06/16 02:08:03;;;;;;;;;;;;;;;;;;1927929;28;7005;-67
2022/06/16 02:09:12;;;;;;;;;;;;;;;;;;1919284;28;7033;-68
2022/06/16 02:10:13;;;;;;;;;;;;;;;;;;1913494;28;7009;-68
2022/06/16 02:11:13;;;;;;;;;;;;;;;;;;1923715;28;7026;-67
2022/06/16 02:12:55;;;;;;;;;;;;;;;;;;1912621;28;8107;-67
2022/06/16 02:13:42;;;;;;;;;;;;;;;;;;1920005;28;7046;-68
2022/06/16 02:14:43;;;;;;;;;;;;;;;;;;1925554;28;7120;-68
2022/06/16 02:15:46;;;;;;;;;;;;;;;;;;1912568;28;7211;-68
2022/06/16 02:16:46;;;;;;;;;;;;;;;;;;1912562;28;7009;-69
2022/06/16 02:17:44;;;;;;;;;;;;;;;;;;1926799;28;7010;-67
2022/06/16 02:18:42;;;;;;;;;;;;;;;;;;1925066;28;7001;-68
2022/06/16 02:19:40;;;;;;;;;;;;;;;;;;1924324;28;7005;-67
2022/06/16 02:20:58;;;;;;;;;;;;;;;;;;1920213;28;8103;-68
2022/06/16 02:21:56;;;;;;;;;;;;;;;;;;1912069;28;7038;-70
2022/06/16 02:22:53;;;;;;;;;;;;;;;;;;1911921;28;7104;-68
2022/06/16 02:23:51;;;;;;;;;;;;;;;;;;1922334;28;7006;-68
2022/06/16 02:24:48;;;;;;;;;;;;;;;;;;1927719;28;7013;-70
2022/06/16 02:25:49;;;;;;;;;;;;;;;;;;1923579;28;7371;-69
2022/06/16 02:26:48;;;;;;;;;;;;;;;;;;1923065;28;8056;-70
2022/06/16 02:27:46;;;;;;;;;;;;;;;;;;1922469;28;7021;-67
2022/06/16 02:28:45;;;;;;;;;;;;;;;;;;1927601;28;7005;-70
2022/06/16 02:29:43;;;;;;;;;;;;;;;;;;1924171;28;7041;-69
2022/06/16 02:30:52;;;;;;;;;;;;;;;;;;1921296;28;7009;-68
2022/06/16 02:31:58;;;;;;;;;;;;;;;;;;1920488;28;7009;-68
2022/06/16 02:33:17;;;;;;;;;;;;;;;;;;1919993;28;7096;-68
2022/06/16 02:34:20;;;;;;;;;;;;;;;;;;1923305;28;7041;-69
2022/06/16 02:35:17;;;;;;;;;;;;;;;;;;1926834;28;7013;-69
2022/06/16 02:36:37;;;;;;;;;;;;;;;;;;1919946;28;7086;-68
2022/06/16 02:37:47;;;;;;;;;;;;;;;;;;1925004;28;7096;-69
2022/06/16 02:39:13;;;;;;;;;;;;;;;;;;1921432;28;7088;-67
2022/06/16 02:40:10;;;;;;;;;;;;;;;;;;1916422;28;7092;-67
2022/06/16 02:41:25;;;;;;;;;;;;;;;;;;1919435;28;7415;-68
2022/06/16 02:42:29;;;;;;;;;;;;;;;;;;1926145;28;7005;-68
2022/06/16 02:43:26;;;;;;;;;;;;;;;;;;1927125;28;7478;-68
2022/06/16 02:44:31;;;;;;;;;;;;;;;;;;1927814;28;7041;-67
2022/06/16 02:45:49;;;;;;;;;;;;;;;;;;1926786;28;7009;-68
2022/06/16 02:46:47;;;;;;;;;;;;;;;;;;1923988;28;7096;-68
2022/06/16 02:48:02;;;;;;;;;;;;;;;;;;1920201;28;7005;-69
2022/06/16 02:49:00;;;;;;;;;;;;;;;;;;1925027;28;7117;-68
2022/06/16 02:50:04;;;;;;;;;;;;;;;;;;1922028;28;8110;-69
2022/06/16 02:51:05;;;;;;;;;;;;;;;;;;1920289;28;7021;-68
2022/06/16 02:52:12;;;;;;;;;;;;;;;;;;1920061;28;7128;-69
2022/06/16 02:53:22;;;;;;;;;;;;;;;;;;1924623;28;7199;-69
2022/06/16 02:54:43;;;;;;;;;;;;;;;;;;1923463;28;7102;-68
2022/06/16 02:55:45;;;;;;;;;;;;;;;;;;1893547;28;7372;-67
2022/06/16 02:56:45;;;;;;;;;;;;;;;;;;1919833;28;7096;-69
2022/06/16 02:57:43;;;;;;;;;;;;;;;;;;1927259;28;7009;-69
2022/06/16 02:58:43;;;;;;;;;;;;;;;;;;1921886;28;7096;-68
2022/06/16 02:59:54;;;;;;;;;;;;;;;;;;1912818;28;7046;-69
2022/06/16 03:00:55;;;;;;;;;;;;;;;;;;1906977;28;8119;-69
2022/06/16 03:01:53;;;;;;;;;;;;;;;;;;1911626;28;8090;-68
2022/06/16 03:02:50;;;;;;;;;;;;;;;;;;1924749;28;8055;-70
2022/06/16 03:04:02;;;;;;;;;;;;;;;;;;1919043;28;7030;-69
2022/06/16 03:05:00;;;;;;;;;;;;;;;;;;1920102;28;7013;-68
2022/06/16 03:05:58;;;;;;;;;;;;;;;;;;1923006;28;7009;-69
2022/06/16 03:06:57;;;;;;;;;;;;;;;;;;1920120;28;7097;-69
2022/06/16 03:07:55;;;;;;;;;;;;;;;;;;1923234;28;7145;-69
2022/06/16 03:08:52;;;;;;;;;;;;;;;;;;1924532;28;7006;-69
2022/06/16 03:09:50;;;;;;;;;;;;;;;;;;1919568;28;8015;-69
2022/06/16 03:10:51;;;;;;;;;;;;;;;;;;1926799;28;7002;-69
2022/06/16 03:11:48;;;;;;;;;;;;;;;;;;1925093;28;7005;-69
2022/06/16 03:12:46;;;;;;;;;;;;;;;;;;1921267;28;7029;-67
2022/06/16 03:13:43;;;;;;;;;;;;;;;;;;1924843;28;7005;-68
2022/06/16 03:14:41;;;;;;;;;;;;;;;;;;1923409;28;7123;-68
2022/06/16 03:15:38;;;;;;;;;;;;;;;;;;1927682;28;7005;-68
2022/06/16 03:16:38;;;;;;;;;;;;;;;;;;1926719;28;7002;-68
2022/06/16 03:17:35;;;;;;;;;;;;;;;;;;1927285;28;7006;-69
2022/06/16 03:18:33;;;;;;;;;;;;;;;;;;1920083;28;7013;-67
2022/06/16 03:19:30;;;;;;;;;;;;;;;;;;1920024;28;7017;-67
2022/06/16 03:20:27;;;;;;;;;;;;;;;;;;1920090;28;7029;-67
2022/06/16 03:21:25;;;;;;;;;;;;;;;;;;1925782;28;7117;-67
2022/06/16 03:22:22;;;;;;;;;;;;;;;;;;1914540;28;7169;-68
2022/06/16 03:23:20;;;;;;;;;;;;;;;;;;1919107;28;7383;-68
2022/06/16 03:24:17;;;;;;;;;;;;;;;;;;1923349;28;7341;-68
2022/06/16 03:25:15;;;;;;;;;;;;;;;;;;1918701;28;7017;-68
2022/06/16 03:26:13;;;;;;;;;;;;;;;;;;1921219;28;7013;-67
2022/06/16 03:27:11;;;;;;;;;;;;;;;;;;1920022;28;7017;-70
2022/06/16 03:28:09;;;;;;;;;;;;;;;;;;1915367;28;7013;-69
2022/06/16 03:29:07;;;;;;;;;;;;;;;;;;1915032;28;7013;-67
2022/06/16 03:30:05;;;;;;;;;;;;;;;;;;1918569;28;7042;-67
2022/06/16 03:31:02;;;;;;;;;;;;;;;;;;1923559;28;7033;-68
2022/06/16 03:32:00;;;;;;;;;;;;;;;;;;1926211;28;8093;-70
2022/06/16 03:32:57;;;;;;;;;;;;;;;;;;1925019;28;7022;-69
2022/06/16 03:33:55;;;;;;;;;;;;;;;;;;1927266;28;7005;-69
2022/06/16 03:34:52;;;;;;;;;;;;;;;;;;1915757;28;8695;-68
2022/06/16 03:35:50;;;;;;;;;;;;;;;;;;1911994;28;7112;-69
2022/06/16 03:36:47;;;;;;;;;;;;;;;;;;1918308;28;7001;-67
2022/06/16 03:37:45;;;;;;;;;;;;;;;;;;1918202;28;7096;-69
2022/06/16 03:38:42;;;;;;;;;;;;;;;;;;1919889;28;7017;-69
2022/06/16 03:39:40;;;;;;;;;;;;;;;;;;1912136;28;7045;-69
2022/06/16 03:40:37;;;;;;;;;;;;;;;;;;1919446;28;7092;-69
2022/06/16 03:41:35;;;;;;;;;;;;;;;;;;1922396;28;7001;-68
2022/06/16 03:42:32;;;;;;;;;;;;;;;;;;1923158;28;7262;-67
2022/06/16 03:43:30;;;;;;;;;;;;;;;;;;1926620;28;7304;-67
2022/06/16 03:44:27;;;;;;;;;;;;;;;;;;1927024;28;7029;-68
2022/06/16 03:45:25;;;;;;;;;;;;;;;;;;1927328;28;8099;-68
2022/06/16 03:46:22;;;;;;;;;;;;;;;;;;1927183;28;7117;-69
2022/06/16 03:47:20;;;;;;;;;;;;;;;;;;1923362;28;8031;-69
2022/06/16 03:48:17;;;;;;;;;;;;;;;;;;1927168;28;7013;-68
2022/06/16 03:49:15;;;;;;;;;;;;;;;;;;1923937;28;7152;-69
2022/06/16 03:50:15;;;;;;;;;;;;;;;;;;1920310;28;8166;-68
2022/06/16 03:51:12;;;;;;;;;;;;;;;;;;1918488;28;7092;-68
2022/06/16 03:52:10;;;;;;;;;;;;;;;;;;1927031;28;7104;-69
2022/06/16 03:53:08;;;;;;;;;;;;;;;;;;1922660;28;7017;-68
2022/06/16 03:54:06;;;;;;;;;;;;;;;;;;1919785;28;8202;-67
2022/06/16 03:55:03;;;;;;;;;;;;;;;;;;1922754;28;7092;-68
2022/06/16 03:56:02;;;;;;;;;;;;;;;;;;1925800;28;7009;-69
2022/06/16 03:56:59;;;;;;;;;;;;;;;;;;1922846;28;7038;-68
2022/06/16 03:57:58;;;;;;;;;;;;;;;;;;1926015;28;7001;-68
2022/06/16 03:58:56;;;;;;;;;;;;;;;;;;1919495;28;7040;-70
2022/06/16 03:59:53;;;;;;;;;;;;;;;;;;1922389;28;7001;-68
2022/06/16 04:00:51;;;;;;;;;;;;;;;;;;1921074;28;7017;-71
2022/06/16 04:01:48;;;;;;;;;;;;;;;;;;1920012;28;7128;-69
2022/06/16 04:02:46;;;;;;;;;;;;;;;;;;1923165;28;7391;-69
2022/06/16 04:04:02;;;;;;;;;;;;;;;;;;1921660;28;7013;-68
2022/06/16 04:05:01;;;;;;;;;;;;;;;;;;1924210;28;7009;-68
2022/06/16 04:05:58;;;;;;;;;;;;;;;;;;1919487;28;7036;-67
2022/06/16 04:06:55;;;;;;;;;;;;;;;;;;1923281;28;7034;-67
2022/06/16 04:07:53;;;;;;;;;;;;;;;;;;1923757;28;7363;-68
2022/06/16 04:08:53;;;;;;;;;;;;;;;;;;1925754;28;7009;-69
2022/06/16 04:09:50;;;;;;;;;;;;;;;;;;1923582;28;7009;-69
2022/06/16 04:10:48;;;;;;;;;;;;;;;;;;1921812;28;7005;-69
2022/06/16 04:11:45;;;;;;;;;;;;;;;;;;1923372;28;7045;-66
2022/06/16 04:12:43;;;;;;;;;;;;;;;;;;1916433;28;7921;-68
2022/06/16 04:13:40;;;;;;;;;;;;;;;;;;1915294;28;7212;-68
2022/06/16 04:14:38;;;;;;;;;;;;;;;;;;1921723;28;7216;-68
2022/06/16 04:15:35;;;;;;;;;;;;;;;;;;1922481;28;7005;-68
2022/06/16 04:16:35;;;;;;;;;;;;;;;;;;1920656;28;7037;-69
2022/06/16 04:17:32;;;;;;;;;;;;;;;;;;1924515;28;7005;-68
2022/06/16 04:18:30;;;;;;;;;;;;;;;;;;1919487;28;7009;-69
2022/06/16 04:19:27;;;;;;;;;;;;;;;;;;1925969;28;7013;-69
2022/06/16 04:20:25;;;;;;;;;;;;;;;;;;1922696;28;7009;-69
2022/06/16 04:21:23;;;;;;;;;;;;;;;;;;1919733;28;7013;-69
2022/06/16 04:22:20;;;;;;;;;;;;;;;;;;1919340;28;7010;-68
2022/06/16 04:23:17;;;;;;;;;;;;;;;;;;1919789;28;7097;-69
2022/06/16 04:24:17;;;;;;;;;;;;;;;;;;1905817;28;8970;-69
2022/06/16 04:25:15;;;;;;;;;;;;;;;;;;1911658;28;7013;-69
2022/06/16 04:26:13;;;;;;;;;;;;;;;;;;1915927;28;7100;-69
2022/06/16 04:27:10;;;;;;;;;;;;;;;;;;1919381;28;7005;-68
2022/06/16 04:28:08;;;;;;;;;;;;;;;;;;1927138;28;7100;-69
2022/06/16 04:29:07;;;;;;;;;;;;;;;;;;1925926;28;7009;-67
2022/06/16 04:30:05;;;;;;;;;;;;;;;;;;1927248;28;7009;-67
2022/06/16 04:31:02;;;;;;;;;;;;;;;;;;1920137;28;7013;-67
2022/06/16 04:32:00;;;;;;;;;;;;;;;;;;1904749;28;7022;-69
2022/06/16 04:32:58;;;;;;;;;;;;;;;;;;1905194;28;7013;-69
2022/06/16 04:33:56;;;;;;;;;;;;;;;;;;1919552;28;7006;-69
2022/06/16 04:34:54;;;;;;;;;;;;;;;;;;1918497;28;7378;-69
2022/06/16 04:35:51;;;;;;;;;;;;;;;;;;1907661;28;7038;-69
2022/06/16 04:36:50;;;;;;;;;;;;;;;;;;1903883;28;7038;-68
2022/06/16 04:37:47;;;;;;;;;;;;;;;;;;1903575;28;7093;-69
2022/06/16 04:38:46;;;;;;;;;;;;;;;;;;1904778;28;7025;-69
2022/06/16 04:39:43;;;;;;;;;;;;;;;;;;1908096;28;7010;-69
2022/06/16 04:40:41;;;;;;;;;;;;;;;;;;1904591;28;7483;-69
2022/06/16 04:41:38;;;;;;;;;;;;;;;;;;1904544;28;8015;-68
2022/06/16 04:42:37;;;;;;;;;;;;;;;;;;1906211;28;7013;-71
2022/06/16 04:43:34;;;;;;;;;;;;;;;;;;1907694;28;7113;-70
2022/06/16 04:44:34;;;;;;;;;;;;;;;;;;1918097;28;7104;-68
2022/06/16 04:45:31;;;;;;;;;;;;;;;;;;1918902;28;7148;-67
2022/06/16 04:46:31;;;;;;;;;;;;;;;;;;1907786;28;7092;-68
2022/06/16 04:47:29;;;;;;;;;;;;;;;;;;1910821;28;7005;-68
2022/06/16 04:48:26;;;;;;;;;;;;;;;;;;1912303;28;7009;-71
2022/06/16 04:49:24;;;;;;;;;;;;;;;;;;1909387;28;7037;-68
2022/06/16 04:50:22;;;;;;;;;;;;;;;;;;1909263;28;7119;-68
2022/06/16 04:51:19;;;;;;;;;;;;;;;;;;1910001;28;7009;-68
2022/06/16 04:52:18;;;;;;;;;;;;;;;;;;1911696;28;7164;-69
2022/06/16 04:53:15;;;;;;;;;;;;;;;;;;1905223;28;8103;-68
2022/06/16 04:54:13;;;;;;;;;;;;;;;;;;1911442;28;7013;-68
2022/06/16 04:55:12;;;;;;;;;;;;;;;;;;1914168;28;7089;-69
2022/06/16 04:56:09;;;;;;;;;;;;;;;;;;1905279;28;7088;-69
2022/06/16 04:57:07;;;;;;;;;;;;;;;;;;1910302;28;7719;-68
2022/06/16 04:58:05;;;;;;;;;;;;;;;;;;1903651;28;7092;-69
2022/06/16 04:59:03;;;;;;;;;;;;;;;;;;1909484;28;7251;-68
2022/06/16 05:00:00;;;;;;;;;;;;;;;;;;1904438;28;7013;-68
2022/06/16 05:01:18;;;;;;;;;;;;;;;;;;1903655;28;7092;-68
2022/06/16 05:02:17;;;;;;;;;;;;;;;;;;1918763;28;7088;-69
2022/06/16 05:03:16;;;;;;;;;;;;;;;;;;1919187;28;7005;-69
2022/06/16 05:04:13;;;;;;;;;;;;;;;;;;1911158;28;7088;-68
2022/06/16 05:05:11;;;;;;;;;;;;;;;;;;1912632;28;7116;-69
2022/06/16 05:06:09;;;;;;;;;;;;;;;;;;1904631;28;7152;-67
2022/06/16 05:07:06;;;;;;;;;;;;;;;;;;1910310;28;7006;-68
2022/06/16 05:08:04;;;;;;;;;;;;;;;;;;1904406;28;7021;-70
2022/06/16 05:09:02;;;;;;;;;;;;;;;;;;1910085;28;7367;-70
2022/06/16 05:09:59;;;;;;;;;;;;;;;;;;1907647;28;7100;-68
2022/06/16 05:10:57;;;;;;;;;;;;;;;;;;1903761;28;7017;-68
2022/06/16 05:11:54;;;;;;;;;;;;;;;;;;1905741;28;7038;-68
2022/06/16 05:12:51;;;;;;;;;;;;;;;;;;1900737;28;7002;-68
2022/06/16 05:13:49;;;;;;;;;;;;;;;;;;1909142;28;7001;-67
2022/06/16 05:14:46;;;;;;;;;;;;;;;;;;1907119;28;7102;-68
2022/06/16 05:15:45;;;;;;;;;;;;;;;;;;1910963;28;7100;-69
2022/06/16 05:16:42;;;;;;;;;;;;;;;;;;1909184;28;7005;-68
2022/06/16 05:17:39;;;;;;;;;;;;;;;;;;1909311;28;7009;-68
2022/06/16 05:18:37;;;;;;;;;;;;;;;;;;1913463;28;7121;-68
2022/06/16 05:19:34;;;;;;;;;;;;;;;;;;1911937;28;7009;-68
2022/06/16 05:20:32;;;;;;;;;;;;;;;;;;1913268;28;7181;-68
2022/06/16 05:21:29;;;;;;;;;;;;;;;;;;1913604;28;7302;-68
2022/06/16 05:22:26;;;;;;;;;;;;;;;;;;1913539;28;7009;-69
2022/06/16 05:23:24;;;;;;;;;;;;;;;;;;1910576;28;7005;-70
2022/06/16 05:24:21;;;;;;;;;;;;;;;;;;1907859;28;7092;-68
2022/06/16 05:25:19;;;;;;;;;;;;;;;;;;1913652;28;7021;-68
2022/06/16 05:26:18;;;;;;;;;;;;;;;;;;1912015;28;7009;-69
2022/06/16 05:27:17;;;;;;;;;;;;;;;;;;1906709;28;7036;-69
2022/06/16 05:28:14;;;;;;;;;;;;;;;;;;1911811;28;7356;-68
2022/06/16 05:29:11;;;;;;;;;;;;;;;;;;1910880;28;7005;-69
2022/06/16 05:30:09;;;;;;;;;;;;;;;;;;1906274;28;7124;-70
2022/06/16 05:31:07;;;;;;;;;;;;;;;;;;1910465;28;7084;-69
2022/06/16 05:32:05;;;;;;;;;;;;;;;;;;1924839;28;7005;-69
2022/06/16 05:33:02;;;;;;;;;;;;;;;;;;1921699;28;7300;-69
2022/06/16 05:34:00;;;;;;;;;;;;;;;;;;1921982;28;7009;-69
2022/06/16 05:34:57;;;;;;;;;;;;;;;;;;1928200;28;7001;-67
2022/06/16 05:35:59;;;;;;;;;;;;;;;;;;1921936;28;7356;-68
2022/06/16 05:36:56;;;;;;;;;;;;;;;;;;1921836;28;7241;-69
2022/06/16 05:37:54;;;;;;;;;;;;;;;;;;1927000;28;7096;-69
2022/06/16 05:38:51;;;;;;;;;;;;;;;;;;1925493;28;7088;-69
2022/06/16 05:39:55;;;;;;;;;;;;;;;;;;1928463;28;7005;-69
2022/06/16 05:41:01;;;;;;;;;;;;;;;;;;1921786;28;7092;-69
2022/06/16 05:41:58;;;;;;;;;;;;;;;;;;1923586;28;7155;-69
2022/06/16 05:42:56;;;;;;;;;;;;;;;;;;1921514;28;7296;-69
2022/06/16 05:43:53;;;;;;;;;;;;;;;;;;1919584;28;7342;-67
2022/06/16 05:44:51;;;;;;;;;;;;;;;;;;1914185;28;7005;-69
2022/06/16 05:45:48;;;;;;;;;;;;;;;;;;1925808;28;7005;-69
2022/06/16 05:46:45;;;;;;;;;;;;;;;;;;1908398;28;7132;-69
2022/06/16 05:47:44;;;;;;;;;;;;;;;;;;1909788;28;7005;-70
2022/06/16 05:48:41;;;;;;;;;;;;;;;;;;1920334;28;7029;-69
2022/06/16 05:49:40;;;;;;;;;;;;;;;;;;1920742;28;7017;-69
2022/06/16 05:50:37;;;;;;;;;;;;;;;;;;1920761;28;7005;-68
2022/06/16 05:51:37;;;;;;;;;;;;;;;;;;1922577;28;7168;-70
2022/06/16 05:52:34;;;;;;;;;;;;;;;;;;1917296;28;7104;-66
2022/06/16 05:53:32;;;;;;;;;;;;;;;;;;1917143;28;7045;-68
2022/06/16 05:54:29;;;;;;;;;;;;;;;;;;1927506;28;7088;-67
2022/06/16 05:55:27;;;;;;;;;;;;;;;;;;1925494;28;7005;-71
2022/06/16 05:56:25;;;;;;;;;;;;;;;;;;1911872;28;7136;-69
2022/06/16 05:57:22;;;;;;;;;;;;;;;;;;1916978;28;7147;-69
2022/06/16 05:58:19;;;;;;;;;;;;;;;;;;1920787;28;7009;-68
2022/06/16 05:59:17;;;;;;;;;;;;;;;;;;1920069;28;7030;-68
2022/06/16 06:00:14;;;;;;;;;;;;;;;;;;1926859;28;7009;-69
2022/06/16 06:01:13;;;;;;;;;;;;;;;;;;1923012;28;7041;-68
2022/06/16 06:02:13;;;;;;;;;;;;;;;;;;1926918;28;8019;-68
2022/06/16 06:03:12;;;;;;;;;;;;;;;;;;1924220;28;7099;-68
2022/06/16 06:04:10;;;;;;;;;;;;;;;;;;1920456;28;7097;-68
2022/06/16 06:05:08;;;;;;;;;;;;;;;;;;1927680;28;7376;-68
2022/06/16 06:06:05;;;;;;;;;;;;;;;;;;1920938;28;7005;-69
2022/06/16 06:07:02;;;;;;;;;;;;;;;;;;1923400;28;7014;-69
2022/06/16 06:16:55;;;;;;;;;;;;;;;;;;1918161;28;7319;-67
2022/06/16 06:17:53;;;;;;;;;;;;;;;;;;1908947;28;7582;-67
2022/06/16 06:18:50;;;;;;;;;;;;;;;;;;1907368;28;8047;-69
2022/06/16 06:19:47;;;;;;;;;;;;;;;;;;1924218;28;7303;-69
2022/06/16 06:20:45;;;;;;;;;;;;;;;;;;1923257;28;7308;-70
2022/06/16 06:21:58;;;;;;;;;;;;;;;;;;1924426;28;7013;-69
2022/06/16 06:22:55;;;;;;;;;;;;;;;;;;1928443;28;7013;-68
2022/06/16 06:23:52;;;;;;;;;;;;;;;;;;1928079;28;7108;-67
2022/06/16 06:24:55;;;;;;;;;;;;;;;;;;1926377;28;7207;-69
2022/06/16 06:25:53;;;;;;;;;;;;;;;;;;1923340;28;7009;-67
2022/06/16 06:26:51;;;;;;;;;;;;;;;;;;1928138;28;7061;-69
2022/06/16 06:27:49;;;;;;;;;;;;;;;;;;1928065;28;7330;-69
2022/06/16 06:28:46;;;;;;;;;;;;;;;;;;1914347;28;7006;-69
2022/06/16 06:29:45;;;;;;;;;;;;;;;;;;1912238;28;7096;-68
2022/06/16 06:30:43;;;;;;;;;;;;;;;;;;1920024;28;7049;-69
2022/06/16 06:31:40;;;;;;;;;;;;;;;;;;1913932;28;7108;-70
2022/06/16 06:32:38;;;;;;;;;;;;;;;;;;1912201;28;7109;-70
2022/06/16 06:33:35;;;;;;;;;;;;;;;;;;1926042;28;7021;-69
2022/06/16 06:34:32;;;;;;;;;;;;;;;;;;1928139;28;7017;-68
2022/06/16 06:35:30;;;;;;;;;;;;;;;;;;1929425;28;7239;-68
2022/06/16 06:36:28;;;;;;;;;;;;;;;;;;1927374;28;7088;-69
2022/06/16 06:37:26;;;;;;;;;;;;;;;;;;1927613;28;7383;-68
2022/06/16 06:38:24;;;;;;;;;;;;;;;;;;1928078;28;7045;-68
2022/06/16 06:39:22;;;;;;;;;;;;;;;;;;1923484;28;7347;-68
2022/06/16 06:40:28;;;;;;;;;;;;;;;;;;1923874;28;7054;-68
2022/06/16 06:41:26;;;;;;;;;;;;;;;;;;1924638;28;7005;-67
2022/06/16 06:42:23;;;;;;;;;;;;;;;;;;1923650;28;7046;-68
2022/06/16 06:43:21;;;;;;;;;;;;;;;;;;1927914;28;7092;-68
2022/06/16 06:44:18;;;;;;;;;;;;;;;;;;1928014;28;7013;-70
2022/06/16 06:45:16;;;;;;;;;;;;;;;;;;1923995;28;7037;-68
2022/06/16 06:46:14;;;;;;;;;;;;;;;;;;1922409;28;8109;-69
2022/06/16 06:47:17;;;;;;;;;;;;;;;;;;1924728;28;7096;-69
2022/06/16 06:48:14;;;;;;;;;;;;;;;;;;1922604;28;7096;-68
2022/06/16 06:49:12;;;;;;;;;;;;;;;;;;1928050;28;7386;-68
2022/06/16 06:50:18;;;;;;;;;;;;;;;;;;1927158;28;7005;-68
2022/06/16 06:51:16;;;;;;;;;;;;;;;;;;1927282;28;7108;-68
2022/06/16 06:52:14;;;;;;;;;;;;;;;;;;1923882;28;7009;-68
2022/06/16 06:53:13;;;;;;;;;;;;;;;;;;1922616;28;7009;-69
2022/06/16 06:54:10;;;;;;;;;;;;;;;;;;1923653;28;7009;-69
2022/06/16 06:55:08;;;;;;;;;;;;;;;;;;1919064;28;7005;-69
2022/06/16 06:56:05;;;;;;;;;;;;;;;;;;1925291;28;7013;-69
2022/06/16 06:57:03;;;;;;;;;;;;;;;;;;1919744;28;7046;-69
2022/06/16 06:58:00;;;;;;;;;;;;;;;;;;1919722;28;7324;-68
2022/06/16 06:59:00;;;;;;;;;;;;;;;;;;1926918;28;7034;-69
2022/06/16 06:59:57;;;;;;;;;;;;;;;;;;1923669;28;7017;-69
2022/06/16 07:00:55;;;;;;;;;;;;;;;;;;1920356;28;7017;-69
2022/06/16 07:01:52;;;;;;;;;;;;;;;;;;1920396;28;7033;-69
2022/06/16 07:02:50;;;;;;;;;;;;;;;;;;1927493;28;7021;-69
2022/06/16 07:03:49;;;;;;;;;;;;;;;;;;1920863;28;7324;-70
2022/06/16 07:04:47;;;;;;;;;;;;;;;;;;1923097;28;7009;-69
2022/06/16 07:05:45;;;;;;;;;;;;;;;;;;1920588;28;7576;-68
2022/06/16 07:06:42;;;;;;;;;;;;;;;;;;1921812;28;7188;-68
2022/06/16 07:07:40;;;;;;;;;;;;;;;;;;1923436;28;7065;-68
2022/06/16 07:08:37;;;;;;;;;;;;;;;;;;1912856;28;7097;-69
2022/06/16 07:09:35;;;;;;;;;;;;;;;;;;1915890;28;7009;-67
2022/06/16 07:10:32;;;;;;;;;;;;;;;;;;1925446;28;7045;-68